Time;durP1;ratioP1;P1;durP2;ratioP2;P2;SDS_P1;SDS_P2;PMS_P1;PMS_P2;Temp;Humidity;BMP_temperature;BMP_pressure;BME280_temperature;BME280_humidity;BME280_pressure;Samples;Min_cycle;Max_cycle;Signal;HPM_P1;HPM_P2
2021/08/19 00:00:15;;;;;;;10.38;8.82;;;;;;;;;;2069193;28;20185;-57
2021/08/19 00:01:17;;;;;;;10.80;9.70;;;;;;;;;;2076656;28;20187;-52
2021/08/19 00:02:17;;;;;;;11.38;9.02;;;;;;;;;;2079449;28;20180;-51
2021/08/19 00:03:17;;;;;;;9.75;8.85;;;;;;;;;;2079915;28;20183;-54
2021/08/19 00:04:17;;;;;;;10.85;8.88;;;;;;;;;;2080822;28;20238;-55
2021/08/19 00:05:17;;;;;;;10.15;8.93;;;;;;;;;;2071749;28;20693;-57
2021/08/19 00:06:18;;;;;;;12.25;9.43;;;;;;;;;;2071690;28;20208;-56
2021/08/19 00:07:18;;;;;;;10.60;9.45;;;;;;;;;;2080457;28;20172;-56
2021/08/19 00:08:18;;;;;;;9.60;8.60;;;;;;;;;;2071650;28;20184;-53
2021/08/19 00:09:19;;;;;;;12.30;9.00;;;;;;;;;;2055553;28;20182;-54
2021/08/19 00:10:19;;;;;;;9.82;8.68;;;;;;;;;;2056088;28;20222;-53
2021/08/19 00:11:19;;;;;;;10.43;8.07;;;;;;;;;;2071683;28;20176;-54
2021/08/19 00:12:19;;;;;;;10.32;8.70;;;;;;;;;;2075906;28;20196;-53
2021/08/19 00:13:20;;;;;;;10.13;8.90;;;;;;;;;;2079310;28;20187;-56
2021/08/19 00:14:20;;;;;;;13.90;8.75;;;;;;;;;;2075544;28;20255;-54
2021/08/19 00:15:20;;;;;;;12.43;8.70;;;;;;;;;;2079487;28;20176;-54
2021/08/19 00:16:21;;;;;;;9.35;8.40;;;;;;;;;;2080543;28;20176;-50
2021/08/19 00:17:21;;;;;;;11.57;8.95;;;;;;;;;;2080177;28;20168;-54
2021/08/19 00:18:21;;;;;;;10.80;9.70;;;;;;;;;;2070573;28;20188;-51
2021/08/19 00:19:21;;;;;;;10.70;8.35;;;;;;;;;;2072106;28;20169;-57
2021/08/19 00:20:21;;;;;;;11.30;8.98;;;;;;;;;;2081634;28;20175;-56
2021/08/19 00:21:22;;;;;;;10.10;8.57;;;;;;;;;;2081547;28;20188;-57
2021/08/19 00:22:22;;;;;;;9.80;8.90;;;;;;;;;;2081391;28;20160;-56
2021/08/19 00:23:22;;;;;;;10.52;9.27;;;;;;;;;;2079353;28;20621;-57
2021/08/19 00:24:23;;;;;;;9.93;8.68;;;;;;;;;;2080290;28;20173;-58
2021/08/19 00:25:24;;;;;;;10.27;9.18;;;;;;;;;;2081332;28;20174;-51
2021/08/19 00:26:25;;;;;;;13.07;10.48;;;;;;;;;;2077399;28;20785;-57
2021/08/19 00:27:25;;;;;;;10.20;9.20;;;;;;;;;;2073153;28;20196;-59
2021/08/19 00:28:25;;;;;;;9.50;8.57;;;;;;;;;;2072283;28;20695;-54
2021/08/19 00:29:25;;;;;;;10.93;9.20;;;;;;;;;;2080752;28;20184;-54
2021/08/19 00:30:26;;;;;;;11.27;9.07;;;;;;;;;;2081345;28;20204;-54
2021/08/19 00:31:26;;;;;;;11.02;9.35;;;;;;;;;;2078702;28;20203;-52
2021/08/19 00:32:27;;;;;;;11.32;8.55;;;;;;;;;;2082011;28;20215;-58
2021/08/19 00:33:28;;;;;;;10.20;9.20;;;;;;;;;;2082125;28;20198;-54
2021/08/19 00:34:28;;;;;;;10.45;8.93;;;;;;;;;;2071695;28;20192;-53
2021/08/19 00:35:29;;;;;;;10.15;9.15;;;;;;;;;;2071500;28;20161;-53
2021/08/19 00:36:30;;;;;;;10.10;9.15;;;;;;;;;;2081211;28;20176;-52
2021/08/19 00:37:33;;;;;;;10.50;9.32;;;;;;;;;;2076510;28;20172;-57
2021/08/19 00:38:33;;;;;;;10.98;9.75;;;;;;;;;;2080286;28;20206;-53
2021/08/19 00:39:33;;;;;;;10.48;9.38;;;;;;;;;;2073840;28;20250;-54
2021/08/19 00:40:33;;;;;;;9.63;8.57;;;;;;;;;;2080484;28;20172;-53
2021/08/19 00:41:37;;;;;;;9.00;8.13;;;;;;;;;;2074848;28;20201;-53
2021/08/19 00:42:37;;;;;;;9.50;8.60;;;;;;;;;;2071932;28;20316;-58
2021/08/19 00:43:38;;;;;;;10.52;8.40;;;;;;;;;;2072630;28;20640;-58
2021/08/19 00:44:39;;;;;;;10.02;9.02;;;;;;;;;;2081782;28;20184;-55
2021/08/19 00:45:39;;;;;;;10.85;9.23;;;;;;;;;;2080918;28;20254;-57
2021/08/19 00:46:41;;;;;;;10.30;9.27;;;;;;;;;;2080394;28;20165;-50
2021/08/19 00:47:41;;;;;;;10.15;8.82;;;;;;;;;;2074993;28;20181;-51
2021/08/19 00:48:42;;;;;;;10.50;9.32;;;;;;;;;;2080379;28;20172;-57
2021/08/19 00:49:43;;;;;;;10.88;8.68;;;;;;;;;;2081211;28;20180;-53
2021/08/19 00:50:43;;;;;;;9.82;8.32;;;;;;;;;;2072880;28;20559;-58
2021/08/19 00:51:45;;;;;;;9.73;8.80;;;;;;;;;;2072458;28;20161;-55
2021/08/19 00:52:46;;;;;;;8.98;8.18;;;;;;;;;;2074240;28;20185;-56
2021/08/19 00:53:46;;;;;;;10.05;8.90;;;;;;;;;;2081254;28;20169;-58
2021/08/19 00:54:46;;;;;;;10.27;9.25;;;;;;;;;;2081448;28;20168;-55
2021/08/19 00:55:48;;;;;;;9.85;8.82;;;;;;;;;;2081340;28;20199;-59
2021/08/19 00:56:53;;;;;;;11.30;8.60;;;;;;;;;;2072274;28;20209;-56
2021/08/19 00:57:54;;;;;;;10.75;9.25;;;;;;;;;;2072474;28;20220;-56
2021/08/19 00:58:57;;;;;;;10.10;8.57;;;;;;;;;;2081359;28;20192;-54
2021/08/19 00:59:58;;;;;;;9.77;8.80;;;;;;;;;;2081339;28;20251;-56
2021/08/19 01:00:58;;;;;;;9.88;8.88;;;;;;;;;;2081458;28;20204;-55
2021/08/19 01:01:59;;;;;;;9.35;8.38;;;;;;;;;;2080963;28;20195;-57
2021/08/19 01:03:00;;;;;;;9.20;8.25;;;;;;;;;;2081521;28;20177;-53
2021/08/19 01:04:01;;;;;;;9.27;8.27;;;;;;;;;;2082690;28;20164;-54
2021/08/19 01:05:02;;;;;;;16.25;8.82;;;;;;;;;;2082856;28;20165;-55
2021/08/19 01:06:02;;;;;;;9.60;8.15;;;;;;;;;;2082390;28;20215;-54
2021/08/19 01:07:04;;;;;;;9.43;8.23;;;;;;;;;;2082591;28;20238;-54
2021/08/19 01:08:05;;;;;;;8.65;7.63;;;;;;;;;;2073432;28;20582;-56
2021/08/19 01:09:06;;;;;;;9.48;8.57;;;;;;;;;;2074056;28;20188;-54
2021/08/19 01:10:07;;;;;;;9.38;8.48;;;;;;;;;;2082377;28;20176;-52
2021/08/19 01:11:07;;;;;;;9.02;8.18;;;;;;;;;;2082825;28;20179;-56
2021/08/19 01:12:13;;;;;;;10.40;9.27;;;;;;;;;;2082726;28;20160;-52
2021/08/19 01:13:14;;;;;;;9.32;8.40;;;;;;;;;;2074040;28;20173;-56
2021/08/19 01:14:15;;;;;;;10.18;8.05;;;;;;;;;;2073858;28;20236;-56
2021/08/19 01:15:15;;;;;;;9.43;8.52;;;;;;;;;;2082497;28;20182;-55
2021/08/19 01:16:17;;;;;;;9.60;8.45;;;;;;;;;;2082578;28;20180;-52
2021/08/19 01:17:18;;;;;;;10.20;8.93;;;;;;;;;;2082336;28;20179;-55
2021/08/19 01:18:18;;;;;;;10.45;9.27;;;;;;;;;;2082315;28;20203;-52
2021/08/19 01:19:20;;;;;;;10.07;9.00;;;;;;;;;;2076099;28;20231;-51
2021/08/19 01:20:23;;;;;;;10.68;9.57;;;;;;;;;;2079279;28;20263;-57
2021/08/19 01:21:23;;;;;;;9.45;8.55;;;;;;;;;;2081092;28;20184;-56
2021/08/19 01:22:24;;;;;;;10.48;8.80;;;;;;;;;;2080140;28;20168;-50
2021/08/19 01:23:24;;;;;;;9.45;8.55;;;;;;;;;;2076092;28;20178;-53
2021/08/19 01:24:24;;;;;;;11.35;8.77;;;;;;;;;;2074265;28;20403;-52
2021/08/19 01:25:25;;;;;;;10.32;9.40;;;;;;;;;;2081729;28;20251;-56
2021/08/19 01:26:27;;;;;;;10.63;9.52;;;;;;;;;;2081068;28;20246;-51
2021/08/19 01:27:28;;;;;;;10.05;9.02;;;;;;;;;;2081750;28;20191;-54
2021/08/19 01:28:28;;;;;;;10.07;9.07;;;;;;;;;;2072463;28;20306;-54
2021/08/19 01:29:29;;;;;;;12.90;9.63;;;;;;;;;;2073426;28;20177;-57
2021/08/19 01:30:29;;;;;;;12.70;9.52;;;;;;;;;;2080097;28;20253;-55
2021/08/19 01:31:30;;;;;;;11.02;9.85;;;;;;;;;;2086853;28;20172;-56
2021/08/19 01:32:33;;;;;;;11.65;9.90;;;;;;;;;;2083098;28;20181;-57
2021/08/19 01:33:33;;;;;;;15.00;10.27;;;;;;;;;;2081113;28;20248;-57
2021/08/19 01:34:34;;;;;;;11.07;9.90;;;;;;;;;;2074602;28;20201;-58
2021/08/19 01:35:34;;;;;;;11.40;10.07;;;;;;;;;;2080368;28;20211;-54
2021/08/19 01:36:34;;;;;;;12.95;10.00;;;;;;;;;;2078539;28;20173;-57
2021/08/19 01:37:35;;;;;;;12.30;10.52;;;;;;;;;;2079246;28;20202;-56
2021/08/19 01:38:35;;;;;;;12.50;11.13;;;;;;;;;;2081846;28;20196;-57
2021/08/19 01:39:35;;;;;;;11.98;10.65;;;;;;;;;;2089316;28;20168;-58
2021/08/19 01:40:35;;;;;;;13.45;10.48;;;;;;;;;;2086484;28;20172;-57
2021/08/19 01:41:35;;;;;;;11.93;10.73;;;;;;;;;;2081810;28;20543;-55
2021/08/19 01:42:36;;;;;;;12.98;11.50;;;;;;;;;;2087934;28;20616;-58
2021/08/19 01:43:37;;;;;;;12.13;10.85;;;;;;;;;;2088429;28;20164;-57
2021/08/19 01:44:37;;;;;;;14.13;10.32;;;;;;;;;;2088775;28;20188;-57
2021/08/19 01:45:37;;;;;;;12.30;11.00;;;;;;;;;;2082545;28;20238;-53
2021/08/19 01:46:37;;;;;;;13.02;10.90;;;;;;;;;;2074983;28;20606;-54
2021/08/19 01:47:38;;;;;;;13.05;11.18;;;;;;;;;;2080584;28;20637;-55
2021/08/19 01:48:42;;;;;;;13.27;11.95;;;;;;;;;;2072665;28;20185;-53
2021/08/19 01:49:42;;;;;;;13.85;10.85;;;;;;;;;;2073305;28;20663;-54
2021/08/19 01:50:43;;;;;;;14.45;12.48;;;;;;;;;;2081575;28;20212;-54
2021/08/19 01:51:43;;;;;;;12.65;11.40;;;;;;;;;;2072340;28;20193;-50
2021/08/19 01:52:44;;;;;;;14.20;12.02;;;;;;;;;;2073426;28;20173;-53
2021/08/19 01:53:46;;;;;;;13.55;12.13;;;;;;;;;;2073048;28;20197;-55
2021/08/19 01:54:46;;;;;;;14.07;12.57;;;;;;;;;;2073519;28;20580;-55
2021/08/19 01:55:46;;;;;;;14.55;12.57;;;;;;;;;;2081382;28;20198;-52
2021/08/19 01:56:47;;;;;;;14.98;12.43;;;;;;;;;;2082104;28;20204;-53
2021/08/19 01:57:48;;;;;;;15.48;12.50;;;;;;;;;;2080041;28;20228;-52
2021/08/19 01:58:50;;;;;;;14.13;12.38;;;;;;;;;;2081879;28;20181;-54
2021/08/19 01:59:50;;;;;;;16.13;13.07;;;;;;;;;;2081379;28;20633;-52
2021/08/19 02:00:51;;;;;;;14.80;13.20;;;;;;;;;;2073512;28;20263;-55
2021/08/19 02:01:51;;;;;;;14.50;12.85;;;;;;;;;;2068889;28;20185;-55
2021/08/19 02:02:51;;;;;;;14.38;12.85;;;;;;;;;;2081523;28;20172;-51
2021/08/19 02:03:52;;;;;;;15.05;13.27;;;;;;;;;;2081419;28;20227;-54
2021/08/19 02:04:53;;;;;;;16.20;14.02;;;;;;;;;;2079432;28;20279;-54
2021/08/19 02:05:53;;;;;;;16.00;13.70;;;;;;;;;;2078763;28;20242;-53
2021/08/19 02:06:54;;;;;;;14.70;13.18;;;;;;;;;;2105554;22;20235;-59
2021/08/19 02:07:54;;;;;;;17.13;13.50;;;;;;;;;;2088199;28;20186;-57
2021/08/19 02:08:54;;;;;;;14.82;13.35;;;;;;;;;;2090348;28;20178;-58
2021/08/19 02:09:54;;;;;;;15.02;13.00;;;;;;;;;;2080689;28;20191;-58
2021/08/19 02:10:54;;;;;;;16.80;14.65;;;;;;;;;;2081717;28;20251;-59
2021/08/19 02:11:55;;;;;;;18.92;15.07;;;;;;;;;;2089239;28;20187;-59
2021/08/19 02:12:55;;;;;;;17.50;14.82;;;;;;;;;;2081207;28;20180;-59
2021/08/19 02:13:55;;;;;;;15.77;13.90;;;;;;;;;;2076511;28;20196;-59
2021/08/19 02:14:56;;;;;;;16.10;14.35;;;;;;;;;;2089680;28;20287;-57
2021/08/19 02:15:56;;;;;;;16.38;14.57;;;;;;;;;;2086988;28;20258;-59
2021/08/19 02:16:57;;;;;;;16.95;15.18;;;;;;;;;;2089660;28;20198;-59
2021/08/19 02:17:57;;;;;;;17.33;14.32;;;;;;;;;;2088241;28;20234;-57
2021/08/19 02:18:57;;;;;;;16.05;14.45;;;;;;;;;;2088994;28;20164;-59
2021/08/19 02:19:57;;;;;;;17.67;15.43;;;;;;;;;;2088385;28;20520;-59
2021/08/19 02:20:58;;;;;;;17.90;16.00;;;;;;;;;;2087434;28;20179;-58
2021/08/19 02:21:58;;;;;;;17.40;15.55;;;;;;;;;;2088056;28;20206;-59
2021/08/19 02:22:59;;;;;;;15.63;14.02;;;;;;;;;;2088587;28;20172;-59
2021/08/19 02:23:59;;;;;;;17.75;15.88;;;;;;;;;;2089489;28;20534;-58
2021/08/19 02:24:59;;;;;;;17.25;15.38;;;;;;;;;;2089232;28;20183;-59
2021/08/19 02:26:00;;;;;;;21.52;15.45;;;;;;;;;;2089485;28;20183;-59
2021/08/19 02:27:00;;;;;;;16.90;15.10;;;;;;;;;;2089410;28;22328;-60
2021/08/19 02:28:00;;;;;;;16.27;14.68;;;;;;;;;;2089342;28;20254;-59
2021/08/19 02:29:00;;;;;;;16.95;15.02;;;;;;;;;;2089757;28;20176;-57
2021/08/19 02:30:01;;;;;;;15.52;13.82;;;;;;;;;;2089478;28;20541;-58
2021/08/19 02:31:01;;;;;;;17.75;15.35;;;;;;;;;;2089992;28;20643;-59
2021/08/19 02:32:01;;;;;;;18.20;15.65;;;;;;;;;;2090463;28;20190;-58
2021/08/19 02:33:03;;;;;;;16.80;14.98;;;;;;;;;;2090033;28;20172;-59
2021/08/19 02:34:03;;;;;;;16.40;14.77;;;;;;;;;;2089348;28;20178;-59
2021/08/19 02:35:04;;;;;;;19.00;16.17;;;;;;;;;;2081112;28;20822;-58
2021/08/19 02:36:04;;;;;;;20.23;17.00;;;;;;;;;;2081479;28;20668;-59
2021/08/19 02:37:04;;;;;;;17.08;15.30;;;;;;;;;;2090135;28;20202;-58
2021/08/19 02:38:07;;;;;;;16.88;14.80;;;;;;;;;;2090058;28;20210;-56
2021/08/19 02:39:08;;;;;;;18.00;15.80;;;;;;;;;;2081534;28;20176;-59
2021/08/19 02:40:08;;;;;;;17.00;15.13;;;;;;;;;;2081505;28;20206;-59
2021/08/19 02:41:08;;;;;;;16.80;15.10;;;;;;;;;;2090079;28;20660;-58
2021/08/19 02:42:09;;;;;;;18.25;16.35;;;;;;;;;;2081409;28;20168;-58
2021/08/19 02:43:09;;;;;;;18.33;16.38;;;;;;;;;;2081497;28;20168;-60
2021/08/19 02:44:09;;;;;;;20.05;16.15;;;;;;;;;;2090441;28;20641;-58
2021/08/19 02:45:10;;;;;;;19.27;17.27;;;;;;;;;;2090020;28;20247;-58
2021/08/19 02:46:11;;;;;;;19.50;17.40;;;;;;;;;;2089902;28;20265;-57
2021/08/19 02:47:11;;;;;;;18.42;16.40;;;;;;;;;;2090385;28;20183;-57
2021/08/19 02:48:11;;;;;;;21.23;17.13;;;;;;;;;;2089626;28;20716;-59
2021/08/19 02:49:11;;;;;;;18.25;16.25;;;;;;;;;;2090319;28;20550;-59
2021/08/19 02:50:12;;;;;;;19.27;16.23;;;;;;;;;;2090086;28;20211;-58
2021/08/19 02:51:12;;;;;;;20.10;17.33;;;;;;;;;;2090329;28;20205;-58
2021/08/19 02:52:12;;;;;;;21.50;17.92;;;;;;;;;;2090255;28;20174;-58
2021/08/19 02:53:13;;;;;;;20.17;17.50;;;;;;;;;;2089978;28;20179;-59
2021/08/19 02:54:13;;;;;;;18.98;16.95;;;;;;;;;;2088902;28;20176;-58
2021/08/19 02:55:13;;;;;;;20.05;17.85;;;;;;;;;;2080690;28;20168;-59
2021/08/19 02:56:13;;;;;;;20.25;18.13;;;;;;;;;;2072195;28;20169;-58
2021/08/19 02:57:14;;;;;;;21.52;17.05;;;;;;;;;;2079943;28;20718;-56
2021/08/19 02:58:14;;;;;;;23.45;18.25;;;;;;;;;;2086805;28;20535;-58
2021/08/19 02:59:14;;;;;;;18.73;16.73;;;;;;;;;;2080200;28;20214;-58
2021/08/19 03:00:15;;;;;;;22.10;17.63;;;;;;;;;;2080803;28;20164;-58
2021/08/19 03:01:15;;;;;;;21.23;18.35;;;;;;;;;;2086750;28;20644;-59
2021/08/19 03:02:15;;;;;;;18.98;16.98;;;;;;;;;;2081311;28;20180;-57
2021/08/19 03:03:15;;;;;;;22.92;18.13;;;;;;;;;;2072067;28;20181;-59
2021/08/19 03:04:15;;;;;;;18.98;16.98;;;;;;;;;;2079832;28;20694;-57
2021/08/19 03:05:16;;;;;;;20.83;16.90;;;;;;;;;;2089641;28;20540;-59
2021/08/19 03:06:16;;;;;;;22.55;17.35;;;;;;;;;;2089437;28;20199;-59
2021/08/19 03:07:16;;;;;;;21.02;18.02;;;;;;;;;;2085523;28;20219;-58
2021/08/19 03:08:17;;;;;;;19.40;17.05;;;;;;;;;;2088163;28;20179;-56
2021/08/19 03:09:17;;;;;;;19.83;16.50;;;;;;;;;;2087374;28;20183;-58
2021/08/19 03:10:17;;;;;;;21.10;17.45;;;;;;;;;;2080416;28;20210;-56
2021/08/19 03:11:17;;;;;;;19.38;17.02;;;;;;;;;;2080265;28;20255;-59
2021/08/19 03:12:18;;;;;;;19.45;17.50;;;;;;;;;;2072293;28;20645;-59
2021/08/19 03:13:18;;;;;;;19.08;17.08;;;;;;;;;;2080218;28;20770;-57
2021/08/19 03:14:18;;;;;;;21.60;17.95;;;;;;;;;;2090153;28;20179;-55
2021/08/19 03:15:19;;;;;;;19.48;17.35;;;;;;;;;;2084870;28;20636;-57
2021/08/19 03:16:19;;;;;;;19.65;17.15;;;;;;;;;;2090006;28;20202;-58
2021/08/19 03:17:20;;;;;;;18.75;16.75;;;;;;;;;;2082384;28;20196;-58
2021/08/19 03:18:20;;;;;;;19.27;16.55;;;;;;;;;;2087305;28;20175;-59
2021/08/19 03:19:20;;;;;;;20.05;17.92;;;;;;;;;;2087299;28;20686;-58
2021/08/19 03:20:21;;;;;;;19.38;17.27;;;;;;;;;;2072764;28;20181;-54
2021/08/19 03:21:21;;;;;;;19.05;15.80;;;;;;;;;;2080051;28;20179;-56
2021/08/19 03:22:22;;;;;;;21.17;17.75;;;;;;;;;;2089511;28;20254;-58
2021/08/19 03:23:23;;;;;;;19.55;17.30;;;;;;;;;;2086838;28;20762;-59
2021/08/19 03:24:23;;;;;;;19.55;17.42;;;;;;;;;;2080201;28;20608;-59
2021/08/19 03:25:25;;;;;;;18.42;16.52;;;;;;;;;;2080179;28;20176;-60
2021/08/19 03:26:26;;;;;;;21.13;17.80;;;;;;;;;;2079971;28;20184;-59
2021/08/19 03:27:28;;;;;;;20.63;17.48;;;;;;;;;;2080942;28;20216;-57
2021/08/19 03:28:29;;;;;;;20.20;17.25;;;;;;;;;;2086579;28;20558;-59
2021/08/19 03:29:30;;;;;;;19.38;17.35;;;;;;;;;;2089277;28;20265;-56
2021/08/19 03:30:30;;;;;;;22.42;17.77;;;;;;;;;;2089002;28;20604;-57
2021/08/19 03:31:31;;;;;;;19.88;17.52;;;;;;;;;;2082054;28;20264;-59
2021/08/19 03:32:31;;;;;;;22.10;17.17;;;;;;;;;;2089941;28;20789;-57
2021/08/19 03:33:31;;;;;;;20.77;17.83;;;;;;;;;;2081062;28;20179;-55
2021/08/19 03:34:32;;;;;;;19.25;16.38;;;;;;;;;;2081308;28;20255;-58
2021/08/19 03:35:33;;;;;;;22.42;19.35;;;;;;;;;;2082038;28;20167;-58
2021/08/19 03:36:33;;;;;;;21.05;17.48;;;;;;;;;;2081802;28;20180;-58
2021/08/19 03:37:33;;;;;;;20.90;17.13;;;;;;;;;;2085918;28;20159;-59
2021/08/19 03:38:34;;;;;;;18.83;16.90;;;;;;;;;;2089516;28;20543;-57
2021/08/19 03:39:35;;;;;;;21.08;17.20;;;;;;;;;;2089783;28;20589;-57
2021/08/19 03:40:35;;;;;;;21.85;18.27;;;;;;;;;;2089807;28;20183;-58
2021/08/19 03:41:36;;;;;;;23.80;16.98;;;;;;;;;;2081002;28;20636;-59
2021/08/19 03:42:37;;;;;;;24.58;18.45;;;;;;;;;;2080980;28;20218;-58
2021/08/19 03:43:38;;;;;;;20.30;18.02;;;;;;;;;;2081605;28;20187;-58
2021/08/19 03:44:39;;;;;;;20.90;16.58;;;;;;;;;;2090392;28;20174;-59
2021/08/19 03:45:39;;;;;;;19.63;17.55;;;;;;;;;;2090808;28;20183;-58
2021/08/19 03:46:39;;;;;;;22.88;17.48;;;;;;;;;;2081218;28;20219;-58
2021/08/19 03:47:41;;;;;;;22.58;17.00;;;;;;;;;;2080882;28;20254;-59
2021/08/19 03:48:41;;;;;;;21.88;16.92;;;;;;;;;;2081234;28;20211;-59
2021/08/19 03:49:41;;;;;;;18.65;16.48;;;;;;;;;;2080664;28;20657;-59
2021/08/19 03:50:42;;;;;;;21.00;16.95;;;;;;;;;;2089991;28;20603;-59
2021/08/19 03:51:42;;;;;;;22.42;18.55;;;;;;;;;;2089723;28;20179;-56
2021/08/19 03:52:42;;;;;;;21.92;17.52;;;;;;;;;;2089745;28;20653;-58
2021/08/19 03:53:43;;;;;;;22.52;17.92;;;;;;;;;;2089692;28;20202;-58
2021/08/19 03:54:43;;;;;;;18.83;16.50;;;;;;;;;;2089486;28;20178;-58
2021/08/19 03:55:44;;;;;;;18.15;16.15;;;;;;;;;;2080893;28;20172;-59
2021/08/19 03:56:44;;;;;;;19.33;16.05;;;;;;;;;;2073130;28;20259;-55
2021/08/19 03:57:46;;;;;;;24.45;16.92;;;;;;;;;;2072114;28;20185;-57
2021/08/19 03:58:47;;;;;;;18.52;16.48;;;;;;;;;;2081196;28;20185;-59
2021/08/19 03:59:47;;;;;;;19.95;17.77;;;;;;;;;;2088724;28;20179;-59
2021/08/19 04:00:48;;;;;;;18.85;16.15;;;;;;;;;;2086790;28;20262;-56
2021/08/19 04:01:48;;;;;;;20.92;16.55;;;;;;;;;;2079744;28;20187;-58
2021/08/19 04:02:49;;;;;;;20.58;16.23;;;;;;;;;;2072243;28;20254;-60
2021/08/19 04:03:50;;;;;;;16.83;15.13;;;;;;;;;;2070685;28;20209;-59
2021/08/19 04:04:50;;;;;;;18.48;15.77;;;;;;;;;;2080986;28;20192;-59
2021/08/19 04:05:50;;;;;;;20.13;16.65;;;;;;;;;;2091120;28;20171;-60
2021/08/19 04:06:51;;;;;;;17.13;15.32;;;;;;;;;;2092944;28;20209;-61
2021/08/19 04:07:51;;;;;;;17.33;15.60;;;;;;;;;;2085078;28;20199;-59
2021/08/19 04:08:51;;;;;;;18.20;15.55;;;;;;;;;;2085255;28;20214;-60
2021/08/19 04:09:51;;;;;;;18.73;15.02;;;;;;;;;;2085678;28;20179;-60
2021/08/19 04:10:52;;;;;;;18.33;15.88;;;;;;;;;;2090163;28;20226;-58
2021/08/19 04:11:52;;;;;;;19.25;15.15;;;;;;;;;;2085589;28;20171;-60
2021/08/19 04:12:52;;;;;;;18.95;16.08;;;;;;;;;;2090452;28;20176;-59
2021/08/19 04:13:52;;;;;;;17.85;15.48;;;;;;;;;;2085413;28;20175;-60
2021/08/19 04:14:53;;;;;;;17.25;15.43;;;;;;;;;;2081531;28;20187;-58
2021/08/19 04:15:53;;;;;;;19.23;15.82;;;;;;;;;;2072929;28;20276;-59
2021/08/19 04:16:53;;;;;;;17.08;15.15;;;;;;;;;;2073796;28;20239;-60
2021/08/19 04:17:54;;;;;;;20.05;16.55;;;;;;;;;;2081690;28;20575;-59
2021/08/19 04:18:55;;;;;;;16.42;14.82;;;;;;;;;;2086107;28;20264;-58
2021/08/19 04:19:55;;;;;;;17.35;15.43;;;;;;;;;;2087694;28;20179;-60
2021/08/19 04:20:55;;;;;;;17.45;15.27;;;;;;;;;;2096225;28;20171;-60
2021/08/19 04:21:55;;;;;;;18.58;16.58;;;;;;;;;;2096043;28;20194;-60
2021/08/19 04:22:56;;;;;;;17.00;15.20;;;;;;;;;;2092142;28;20214;-59
2021/08/19 04:23:56;;;;;;;17.42;15.73;;;;;;;;;;2094567;28;20179;-60
2021/08/19 04:24:56;;;;;;;17.48;15.68;;;;;;;;;;2095243;28;20225;-59
2021/08/19 04:25:56;;;;;;;22.08;15.90;;;;;;;;;;2095356;28;20218;-60
2021/08/19 04:26:57;;;;;;;17.95;15.43;;;;;;;;;;2085215;28;20215;-59
2021/08/19 04:27:57;;;;;;;17.42;15.65;;;;;;;;;;2082257;28;20176;-58
2021/08/19 04:28:57;;;;;;;17.63;15.68;;;;;;;;;;2089920;28;20280;-56
2021/08/19 04:29:57;;;;;;;17.48;15.50;;;;;;;;;;2090762;28;20183;-59
2021/08/19 04:30:58;;;;;;;15.70;14.10;;;;;;;;;;2082761;28;20588;-60
2021/08/19 04:31:59;;;;;;;16.15;14.45;;;;;;;;;;2082925;28;20187;-59
2021/08/19 04:33:00;;;;;;;18.08;15.60;;;;;;;;;;2089251;28;20156;-57
2021/08/19 04:34:01;;;;;;;17.45;15.13;;;;;;;;;;2091223;28;20183;-60
2021/08/19 04:35:02;;;;;;;17.33;15.35;;;;;;;;;;2086548;28;20176;-59
2021/08/19 04:36:02;;;;;;;17.27;15.50;;;;;;;;;;2092343;28;20199;-61
2021/08/19 04:37:03;;;;;;;17.02;15.27;;;;;;;;;;2086371;28;20207;-60
2021/08/19 04:38:03;;;;;;;17.85;15.55;;;;;;;;;;2087931;28;20636;-59
2021/08/19 04:39:03;;;;;;;16.98;14.70;;;;;;;;;;2088304;28;20179;-59
2021/08/19 04:40:04;;;;;;;18.00;15.80;;;;;;;;;;2088171;28;20167;-58
2021/08/19 04:41:04;;;;;;;17.65;15.18;;;;;;;;;;2091030;28;20187;-57
2021/08/19 04:42:04;;;;;;;17.30;14.80;;;;;;;;;;2096382;28;20257;-61
2021/08/19 04:43:04;;;;;;;16.73;14.95;;;;;;;;;;2094865;28;20171;-60
2021/08/19 04:44:05;;;;;;;16.52;14.82;;;;;;;;;;2093176;28;20191;-58
2021/08/19 04:45:05;;;;;;;17.45;15.65;;;;;;;;;;2095383;28;20205;-57
2021/08/19 04:46:05;;;;;;;17.58;15.65;;;;;;;;;;2095686;28;20172;-58
2021/08/19 04:47:06;;;;;;;15.73;14.18;;;;;;;;;;2092338;28;20206;-59
2021/08/19 04:48:06;;;;;;;15.93;14.13;;;;;;;;;;2083603;28;20199;-60
2021/08/19 04:49:06;;;;;;;19.10;14.48;;;;;;;;;;2084175;28;20298;-59
2021/08/19 04:50:07;;;;;;;15.98;13.90;;;;;;;;;;2092260;28;20199;-58
2021/08/19 04:51:07;;;;;;;16.88;15.07;;;;;;;;;;2083658;28;20172;-60
2021/08/19 04:52:08;;;;;;;16.75;14.60;;;;;;;;;;2091394;28;20171;-59
2021/08/19 04:53:08;;;;;;;16.23;14.43;;;;;;;;;;2091404;28;20239;-59
2021/08/19 04:54:08;;;;;;;19.20;15.23;;;;;;;;;;2091674;28;20179;-60
2021/08/19 04:55:09;;;;;;;16.40;14.70;;;;;;;;;;2091611;28;20565;-59
2021/08/19 04:56:09;;;;;;;15.60;13.73;;;;;;;;;;2091398;28;20651;-59
2021/08/19 04:57:09;;;;;;;16.35;14.65;;;;;;;;;;2091029;28;20218;-60
2021/08/19 04:58:09;;;;;;;17.42;14.85;;;;;;;;;;2090592;28;20172;-58
2021/08/19 04:59:10;;;;;;;15.70;14.10;;;;;;;;;;2082600;28;20226;-59
2021/08/19 05:00:10;;;;;;;16.00;14.40;;;;;;;;;;2082536;28;20199;-59
2021/08/19 05:01:11;;;;;;;16.63;14.93;;;;;;;;;;2082424;28;20251;-60
2021/08/19 05:02:11;;;;;;;18.58;15.80;;;;;;;;;;2082501;28;20325;-60
2021/08/19 05:03:11;;;;;;;17.25;15.43;;;;;;;;;;2083063;28;20206;-59
2021/08/19 05:04:12;;;;;;;18.30;16.25;;;;;;;;;;2090559;28;20654;-58
2021/08/19 05:05:12;;;;;;;18.52;16.52;;;;;;;;;;2091501;28;20164;-59
2021/08/19 05:06:12;;;;;;;19.50;16.40;;;;;;;;;;2090587;28;20228;-58
2021/08/19 05:07:13;;;;;;;18.30;16.42;;;;;;;;;;2090570;28;20222;-59
2021/08/19 05:08:13;;;;;;;20.20;16.15;;;;;;;;;;2090862;28;20184;-59
2021/08/19 05:09:13;;;;;;;18.63;16.63;;;;;;;;;;2091256;28;20172;-59
2021/08/19 05:10:13;;;;;;;18.20;15.20;;;;;;;;;;2090484;28;20238;-58
2021/08/19 05:11:14;;;;;;;18.95;16.27;;;;;;;;;;2090926;28;20219;-58
2021/08/19 05:12:14;;;;;;;20.38;16.52;;;;;;;;;;2090553;28;20710;-59
2021/08/19 05:13:14;;;;;;;18.83;16.83;;;;;;;;;;2086217;28;20675;-59
2021/08/19 05:14:14;;;;;;;21.50;17.13;;;;;;;;;;2082328;28;20701;-58
2021/08/19 05:15:15;;;;;;;20.35;16.20;;;;;;;;;;2090499;28;20184;-57
2021/08/19 05:16:15;;;;;;;17.70;15.27;;;;;;;;;;2091024;28;20235;-59
2021/08/19 05:17:15;;;;;;;22.23;16.70;;;;;;;;;;2086015;28;20207;-58
2021/08/19 05:18:15;;;;;;;17.95;16.05;;;;;;;;;;2084221;28;20223;-58
2021/08/19 05:19:16;;;;;;;18.13;16.23;;;;;;;;;;2092954;28;20238;-55
2021/08/19 05:20:16;;;;;;;19.73;16.55;;;;;;;;;;2082190;28;20259;-59
2021/08/19 05:21:16;;;;;;;19.58;15.88;;;;;;;;;;2081940;28;20196;-59
2021/08/19 05:22:16;;;;;;;19.00;16.52;;;;;;;;;;2090892;28;20175;-58
2021/08/19 05:23:17;;;;;;;19.33;16.27;;;;;;;;;;2090996;28;20620;-57
2021/08/19 05:24:17;;;;;;;18.38;15.65;;;;;;;;;;2090906;28;20176;-58
2021/08/19 05:25:17;;;;;;;17.88;15.57;;;;;;;;;;2090960;28;20163;-56
2021/08/19 05:26:18;;;;;;;18.65;15.45;;;;;;;;;;2080307;28;20255;-59
2021/08/19 05:27:18;;;;;;;17.38;15.65;;;;;;;;;;2081835;28;20198;-55
2021/08/19 05:28:19;;;;;;;17.52;15.65;;;;;;;;;;2089482;28;20171;-59
2021/08/19 05:29:19;;;;;;;16.60;14.88;;;;;;;;;;2089940;28;20250;-55
2021/08/19 05:30:19;;;;;;;21.63;16.70;;;;;;;;;;2088763;28;20683;-59
2021/08/19 05:31:19;;;;;;;20.15;16.02;;;;;;;;;;2085258;28;20254;-59
2021/08/19 05:32:20;;;;;;;19.25;15.70;;;;;;;;;;2089444;28;20172;-60
2021/08/19 05:33:20;;;;;;;17.60;15.43;;;;;;;;;;2088618;28;20314;-58
2021/08/19 05:34:20;;;;;;;17.13;14.98;;;;;;;;;;2089951;28;20188;-59
2021/08/19 05:35:21;;;;;;;16.52;14.75;;;;;;;;;;2089512;28;20179;-60
2021/08/19 05:36:21;;;;;;;16.92;14.45;;;;;;;;;;2095550;28;20265;-55
2021/08/19 05:37:21;;;;;;;16.67;14.48;;;;;;;;;;2090615;28;20254;-58
2021/08/19 05:38:22;;;;;;;16.55;14.95;;;;;;;;;;2086468;28;20711;-58
2021/08/19 05:39:22;;;;;;;15.50;13.90;;;;;;;;;;2082038;28;20179;-57
2021/08/19 05:40:22;;;;;;;17.17;15.35;;;;;;;;;;2089742;28;20596;-58
2021/08/19 05:41:23;;;;;;;19.25;15.32;;;;;;;;;;2081770;28;20176;-57
2021/08/19 05:42:23;;;;;;;19.75;14.57;;;;;;;;;;2076791;28;20589;-60
2021/08/19 05:43:23;;;;;;;19.63;15.23;;;;;;;;;;2080034;28;20264;-58
2021/08/19 05:44:24;;;;;;;16.83;15.20;;;;;;;;;;2089885;28;20183;-57
2021/08/19 05:45:24;;;;;;;18.55;15.65;;;;;;;;;;2087215;28;20172;-57
2021/08/19 05:46:24;;;;;;;16.60;14.85;;;;;;;;;;2080901;28;20565;-59
2021/08/19 05:47:24;;;;;;;15.63;14.00;;;;;;;;;;2086377;28;20213;-60
2021/08/19 05:48:25;;;;;;;17.17;15.38;;;;;;;;;;2088354;28;20192;-59
2021/08/19 05:49:25;;;;;;;18.63;15.25;;;;;;;;;;2090394;28;20179;-59
2021/08/19 05:50:25;;;;;;;18.17;14.32;;;;;;;;;;2086504;28;20225;-58
2021/08/19 05:51:25;;;;;;;18.80;14.73;;;;;;;;;;2084909;28;21025;-59
2021/08/19 05:52:26;;;;;;;15.68;14.15;;;;;;;;;;2090688;28;20176;-56
2021/08/19 05:53:26;;;;;;;18.98;15.40;;;;;;;;;;2093139;28;20174;-57